sensor_id;sensor_type;location;lat;lon;timestamp;temperature;humidity
56498;DHT22;51790;45.558;12.076;2023-03-16T00:02:54;6.30;75.60
56498;DHT22;51790;45.558;12.076;2023-03-16T00:08:55;6.10;77.40
56498;DHT22;51790;45.558;12.076;2023-03-16T00:14:59;6.10;75.50
56498;DHT22;51790;45.558;12.076;2023-03-16T00:21:00;6.20;73.40
56498;DHT22;51790;45.558;12.076;2023-03-16T00:27:02;6.50;72.40
56498;DHT22;51790;45.558;12.076;2023-03-16T00:33:03;6.60;70.30
56498;DHT22;51790;45.558;12.076;2023-03-16T00:39:05;6.60;72.80
56498;DHT22;51790;45.558;12.076;2023-03-16T00:45:07;6.50;74.30
56498;DHT22;51790;45.558;12.076;2023-03-16T00:51:10;5.60;77.40
56498;DHT22;51790;45.558;12.076;2023-03-16T00:57:13;6.30;73.20
56498;DHT22;51790;45.558;12.076;2023-03-16T01:03:15;6.00;70.70
56498;DHT22;51790;45.558;12.076;2023-03-16T01:09:17;6.10;70.60
56498;DHT22;51790;45.558;12.076;2023-03-16T01:15:18;6.50;66.00
56498;DHT22;51790;45.558;12.076;2023-03-16T01:21:20;6.30;68.10
56498;DHT22;51790;45.558;12.076;2023-03-16T01:27:23;6.30;68.20
56498;DHT22;51790;45.558;12.076;2023-03-16T01:33:26;6.30;68.80
56498;DHT22;51790;45.558;12.076;2023-03-16T01:39:28;6.30;69.90
56498;DHT22;51790;45.558;12.076;2023-03-16T01:52:02;5.90;70.90
56498;DHT22;51790;45.558;12.076;2023-03-16T01:58:06;5.60;72.70
56498;DHT22;51790;45.558;12.076;2023-03-16T02:04:13;5.60;73.90
56498;DHT22;51790;45.558;12.076;2023-03-16T02:10:18;5.60;74.70
56498;DHT22;51790;45.558;12.076;2023-03-16T02:16:20;5.60;75.20
56498;DHT22;51790;45.558;12.076;2023-03-16T02:22:23;5.50;75.00
56498;DHT22;51790;45.558;12.076;2023-03-16T02:28:37;5.50;75.10
56498;DHT22;51790;45.558;12.076;2023-03-16T02:34:45;5.40;75.30
56498;DHT22;51790;45.558;12.076;2023-03-16T02:40:58;5.40;75.60
56498;DHT22;51790;45.558;12.076;2023-03-16T02:47:12;5.50;75.30
56498;DHT22;51790;45.558;12.076;2023-03-16T02:53:16;5.50;74.60
56498;DHT22;51790;45.558;12.076;2023-03-16T02:59:18;5.50;75.60
56498;DHT22;51790;45.558;12.076;2023-03-16T03:05:19;5.40;75.40
56498;DHT22;51790;45.558;12.076;2023-03-16T03:11:21;5.40;75.70
56498;DHT22;51790;45.558;12.076;2023-03-16T03:17:22;5.30;76.00
56498;DHT22;51790;45.558;12.076;2023-03-16T03:23:30;5.00;77.20
56498;DHT22;51790;45.558;12.076;2023-03-16T03:29:31;4.70;78.50
56498;DHT22;51790;45.558;12.076;2023-03-16T03:35:36;4.60;78.80
56498;DHT22;51790;45.558;12.076;2023-03-16T03:41:37;4.40;79.40
56498;DHT22;51790;45.558;12.076;2023-03-16T03:47:41;4.50;78.90
56498;DHT22;51790;45.558;12.076;2023-03-16T03:53:46;4.50;78.80
56498;DHT22;51790;45.558;12.076;2023-03-16T03:59:53;4.40;77.70
56498;DHT22;51790;45.558;12.076;2023-03-16T04:06:13;4.30;77.80
56498;DHT22;51790;45.558;12.076;2023-03-16T04:12:15;4.30;78.00
56498;DHT22;51790;45.558;12.076;2023-03-16T04:18:17;4.30;78.10
56498;DHT22;51790;45.558;12.076;2023-03-16T04:24:19;4.30;78.70
56498;DHT22;51790;45.558;12.076;2023-03-16T04:30:22;4.10;79.30
56498;DHT22;51790;45.558;12.076;2023-03-16T04:36:27;4.10;79.40
56498;DHT22;51790;45.558;12.076;2023-03-16T04:42:29;4.20;78.20
56498;DHT22;51790;45.558;12.076;2023-03-16T04:48:31;4.20;78.40
56498;DHT22;51790;45.558;12.076;2023-03-16T04:54:32;4.10;78.20
56498;DHT22;51790;45.558;12.076;2023-03-16T05:00:34;4.10;77.70
56498;DHT22;51790;45.558;12.076;2023-03-16T05:06:40;3.90;78.00
56498;DHT22;51790;45.558;12.076;2023-03-16T05:12:42;3.70;79.00
56498;DHT22;51790;45.558;12.076;2023-03-16T06:14:11;4.30;77.50
56498;DHT22;51790;45.558;12.076;2023-03-16T06:20:13;4.90;77.50
56498;DHT22;51790;45.558;12.076;2023-03-16T06:26:17;5.30;74.60
56498;DHT22;51790;45.558;12.076;2023-03-16T06:32:21;5.30;74.20
56498;DHT22;51790;45.558;12.076;2023-03-16T06:38:22;5.50;73.80
56498;DHT22;51790;45.558;12.076;2023-03-16T06:44:32;5.40;72.10
56498;DHT22;51790;45.558;12.076;2023-03-16T06:50:39;5.70;69.80
56498;DHT22;51790;45.558;12.076;2023-03-16T06:56:41;6.20;67.50
56498;DHT22;51790;45.558;12.076;2023-03-16T07:02:42;6.30;65.70
56498;DHT22;51790;45.558;12.076;2023-03-16T07:08:46;6.50;65.30
56498;DHT22;51790;45.558;12.076;2023-03-16T07:14:48;6.70;66.40
56498;DHT22;51790;45.558;12.076;2023-03-16T07:20:49;7.00;64.80
56498;DHT22;51790;45.558;12.076;2023-03-16T07:26:51;7.30;65.90
56498;DHT22;51790;45.558;12.076;2023-03-16T07:33:02;7.40;65.40
56498;DHT22;51790;45.558;12.076;2023-03-16T07:39:05;7.70;62.70
56498;DHT22;51790;45.558;12.076;2023-03-16T07:45:08;7.90;63.10
56498;DHT22;51790;45.558;12.076;2023-03-16T07:51:11;8.20;63.30
56498;DHT22;51790;45.558;12.076;2023-03-16T07:57:13;8.50;62.50
56498;DHT22;51790;45.558;12.076;2023-03-16T08:03:17;8.90;60.40
56498;DHT22;51790;45.558;12.076;2023-03-16T08:09:20;9.00;57.50
56498;DHT22;51790;45.558;12.076;2023-03-16T08:15:21;9.30;56.40
56498;DHT22;51790;45.558;12.076;2023-03-16T08:21:26;9.50;54.10
56498;DHT22;51790;45.558;12.076;2023-03-16T08:27:28;9.60;53.30
56498;DHT22;51790;45.558;12.076;2023-03-16T08:33:34;9.60;52.40
56498;DHT22;51790;45.558;12.076;2023-03-16T08:39:38;9.80;53.30
56498;DHT22;51790;45.558;12.076;2023-03-16T08:45:44;10.00;56.00
56498;DHT22;51790;45.558;12.076;2023-03-16T08:51:45;10.10;55.90
56498;DHT22;51790;45.558;12.076;2023-03-16T08:57:47;10.30;55.60
56498;DHT22;51790;45.558;12.076;2023-03-16T09:03:49;10.30;55.00
56498;DHT22;51790;45.558;12.076;2023-03-16T09:09:51;10.70;55.90
56498;DHT22;51790;45.558;12.076;2023-03-16T09:15:55;10.80;53.90
56498;DHT22;51790;45.558;12.076;2023-03-16T09:21:56;10.90;53.00
56498;DHT22;51790;45.558;12.076;2023-03-16T09:27:58;11.00;55.40
56498;DHT22;51790;45.558;12.076;2023-03-16T09:34:00;11.10;55.40
56498;DHT22;51790;45.558;12.076;2023-03-16T09:40:02;11.10;54.00
56498;DHT22;51790;45.558;12.076;2023-03-16T09:58:30;11.50;51.30
56498;DHT22;51790;45.558;12.076;2023-03-16T10:04:41;11.70;51.50
56498;DHT22;51790;45.558;12.076;2023-03-16T10:16:50;11.50;48.80
56498;DHT22;51790;45.558;12.076;2023-03-16T10:22:52;11.50;48.70
56498;DHT22;51790;45.558;12.076;2023-03-16T10:28:54;11.80;49.70
56498;DHT22;51790;45.558;12.076;2023-03-16T10:35:05;11.80;47.90
56498;DHT22;51790;45.558;12.076;2023-03-16T10:47:21;12.20;50.30
56498;DHT22;51790;45.558;12.076;2023-03-16T10:53:25;12.30;49.10
56498;DHT22;51790;45.558;12.076;2023-03-16T10:59:28;12.60;48.30
56498;DHT22;51790;45.558;12.076;2023-03-16T11:05:31;12.60;47.40
56498;DHT22;51790;45.558;12.076;2023-03-16T11:11:33;12.20;48.00
56498;DHT22;51790;45.558;12.076;2023-03-16T11:17:44;12.60;46.60
56498;DHT22;51790;45.558;12.076;2023-03-16T11:23:48;13.20;46.30
56498;DHT22;51790;45.558;12.076;2023-03-16T11:55:19;13.30;48.00
56498;DHT22;51790;45.558;12.076;2023-03-16T12:01:44;13.40;48.10
56498;DHT22;51790;45.558;12.076;2023-03-16T12:14:28;13.40;47.40
56498;DHT22;51790;45.558;12.076;2023-03-16T12:20:37;13.00;49.30
56498;DHT22;51790;45.558;12.076;2023-03-16T12:26:42;13.20;47.60
56498;DHT22;51790;45.558;12.076;2023-03-16T12:32:45;13.30;48.70
56498;DHT22;51790;45.558;12.076;2023-03-16T12:39:09;13.20;47.40
56498;DHT22;51790;45.558;12.076;2023-03-16T12:45:14;13.40;48.40
56498;DHT22;51790;45.558;12.076;2023-03-16T12:51:17;13.10;49.40
56498;DHT22;51790;45.558;12.076;2023-03-16T12:57:19;13.10;50.60
56498;DHT22;51790;45.558;12.076;2023-03-16T13:03:24;13.20;49.00
56498;DHT22;51790;45.558;12.076;2023-03-16T13:09:26;13.10;48.60
56498;DHT22;51790;45.558;12.076;2023-03-16T13:22:27;14.00;49.00
56498;DHT22;51790;45.558;12.076;2023-03-16T13:28:30;14.30;49.40
56498;DHT22;51790;45.558;12.076;2023-03-16T13:34:45;15.00;47.70
56498;DHT22;51790;45.558;12.076;2023-03-16T13:40:49;14.80;48.10
56498;DHT22;51790;45.558;12.076;2023-03-16T13:46:51;14.80;46.30
56498;DHT22;51790;45.558;12.076;2023-03-16T13:52:56;14.50;45.90
56498;DHT22;51790;45.558;12.076;2023-03-16T13:58:58;14.20;47.40
56498;DHT22;51790;45.558;12.076;2023-03-16T14:05:07;14.30;48.20
56498;DHT22;51790;45.558;12.076;2023-03-16T14:11:09;14.20;47.90
56498;DHT22;51790;45.558;12.076;2023-03-16T14:17:15;14.20;49.90
56498;DHT22;51790;45.558;12.076;2023-03-16T14:23:21;14.00;48.80
56498;DHT22;51790;45.558;12.076;2023-03-16T14:29:25;13.70;49.00
56498;DHT22;51790;45.558;12.076;2023-03-16T14:35:28;13.80;49.80
56498;DHT22;51790;45.558;12.076;2023-03-16T14:41:30;14.20;50.00
56498;DHT22;51790;45.558;12.076;2023-03-16T14:47:36;14.20;48.90
56498;DHT22;51790;45.558;12.076;2023-03-16T14:53:40;14.10;49.10
56498;DHT22;51790;45.558;12.076;2023-03-16T14:59:42;13.90;50.20
56498;DHT22;51790;45.558;12.076;2023-03-16T15:05:46;13.80;49.60
56498;DHT22;51790;45.558;12.076;2023-03-16T15:11:48;13.80;50.40
56498;DHT22;51790;45.558;12.076;2023-03-16T15:17:50;13.50;50.20
56498;DHT22;51790;45.558;12.076;2023-03-16T15:23:52;13.60;50.00
56498;DHT22;51790;45.558;12.076;2023-03-16T15:29:53;13.50;50.40
56498;DHT22;51790;45.558;12.076;2023-03-16T15:35:56;13.30;50.30
56498;DHT22;51790;45.558;12.076;2023-03-16T15:41:58;13.30;52.00
56498;DHT22;51790;45.558;12.076;2023-03-16T15:47:59;13.20;51.70
56498;DHT22;51790;45.558;12.076;2023-03-16T15:54:01;13.20;52.00
56498;DHT22;51790;45.558;12.076;2023-03-16T16:00:03;12.90;52.60
56498;DHT22;51790;45.558;12.076;2023-03-16T16:06:09;12.80;52.70
56498;DHT22;51790;45.558;12.076;2023-03-16T16:12:12;12.60;52.00
56498;DHT22;51790;45.558;12.076;2023-03-16T16:18:25;12.50;53.20
56498;DHT22;51790;45.558;12.076;2023-03-16T16:24:28;12.30;54.40
56498;DHT22;51790;45.558;12.076;2023-03-16T16:30:30;12.10;55.00
56498;DHT22;51790;45.558;12.076;2023-03-16T16:36:31;12.10;55.50
56498;DHT22;51790;45.558;12.076;2023-03-16T16:42:33;11.90;56.20
56498;DHT22;51790;45.558;12.076;2023-03-16T16:48:35;11.90;57.00
56498;DHT22;51790;45.558;12.076;2023-03-16T16:54:37;11.50;57.80
56498;DHT22;51790;45.558;12.076;2023-03-16T17:00:38;11.10;58.80
56498;DHT22;51790;45.558;12.076;2023-03-16T17:06:42;11.10;59.90
56498;DHT22;51790;45.558;12.076;2023-03-16T17:12:43;10.70;59.90
56498;DHT22;51790;45.558;12.076;2023-03-16T17:18:46;10.40;61.20
56498;DHT22;51790;45.558;12.076;2023-03-16T17:24:47;10.20;62.20
56498;DHT22;51790;45.558;12.076;2023-03-16T17:30:49;10.00;62.30
56498;DHT22;51790;45.558;12.076;2023-03-16T17:36:51;9.80;62.60
56498;DHT22;51790;45.558;12.076;2023-03-16T17:42:53;9.60;63.90
56498;DHT22;51790;45.558;12.076;2023-03-16T17:48:55;9.60;64.20
56498;DHT22;51790;45.558;12.076;2023-03-16T17:54:57;9.50;64.20
56498;DHT22;51790;45.558;12.076;2023-03-16T18:00:58;9.50;64.30
56498;DHT22;51790;45.558;12.076;2023-03-16T18:07:00;9.30;64.50
56498;DHT22;51790;45.558;12.076;2023-03-16T18:13:04;9.30;64.70
56498;DHT22;51790;45.558;12.076;2023-03-16T18:19:12;9.20;64.70
56498;DHT22;51790;45.558;12.076;2023-03-16T18:31:31;9.20;64.40
56498;DHT22;51790;45.558;12.076;2023-03-16T18:37:33;9.00;64.10
56498;DHT22;51790;45.558;12.076;2023-03-16T18:43:35;9.00;63.60
56498;DHT22;51790;45.558;12.076;2023-03-16T18:49:36;8.90;63.40
56498;DHT22;51790;45.558;12.076;2023-03-16T18:55:37;8.80;62.90
56498;DHT22;51790;45.558;12.076;2023-03-16T19:01:45;8.80;63.10
56498;DHT22;51790;45.558;12.076;2023-03-16T19:07:48;8.70;63.30
56498;DHT22;51790;45.558;12.076;2023-03-16T19:20:44;8.80;61.10
56498;DHT22;51790;45.558;12.076;2023-03-16T19:26:46;8.80;59.90
56498;DHT22;51790;45.558;12.076;2023-03-16T19:32:48;8.70;59.80
56498;DHT22;51790;45.558;12.076;2023-03-16T19:38:50;8.70;60.30
56498;DHT22;51790;45.558;12.076;2023-03-16T19:44:51;8.50;61.60
56498;DHT22;51790;45.558;12.076;2023-03-16T19:50:53;8.30;63.10
56498;DHT22;51790;45.558;12.076;2023-03-16T19:56:55;8.30;62.30
56498;DHT22;51790;45.558;12.076;2023-03-16T20:02:58;8.20;64.10
56498;DHT22;51790;45.558;12.076;2023-03-16T20:09:01;8.10;64.60
56498;DHT22;51790;45.558;12.076;2023-03-16T20:15:03;8.00;64.50
56498;DHT22;51790;45.558;12.076;2023-03-16T20:21:05;7.80;65.20
56498;DHT22;51790;45.558;12.076;2023-03-16T20:27:08;7.60;65.40
56498;DHT22;51790;45.558;12.076;2023-03-16T20:33:18;7.60;65.30
56498;DHT22;51790;45.558;12.076;2023-03-16T20:39:20;7.50;66.10
56498;DHT22;51790;45.558;12.076;2023-03-16T20:45:25;7.50;65.70
56498;DHT22;51790;45.558;12.076;2023-03-16T20:51:27;7.60;65.10
56498;DHT22;51790;45.558;12.076;2023-03-16T20:57:29;7.60;65.40
56498;DHT22;51790;45.558;12.076;2023-03-16T21:03:31;7.60;65.70
56498;DHT22;51790;45.558;12.076;2023-03-16T21:09:40;7.50;66.40
56498;DHT22;51790;45.558;12.076;2023-03-16T21:15:42;7.50;66.10
56498;DHT22;51790;45.558;12.076;2023-03-16T21:21:43;7.40;67.30
56498;DHT22;51790;45.558;12.076;2023-03-16T21:27:45;7.60;67.90
56498;DHT22;51790;45.558;12.076;2023-03-16T21:33:47;7.60;67.20
56498;DHT22;51790;45.558;12.076;2023-03-16T21:39:51;7.60;67.90
56498;DHT22;51790;45.558;12.076;2023-03-16T21:45:52;7.50;67.60
56498;DHT22;51790;45.558;12.076;2023-03-16T21:51:55;7.30;67.90
56498;DHT22;51790;45.558;12.076;2023-03-16T21:57:57;7.30;68.10
56498;DHT22;51790;45.558;12.076;2023-03-16T22:04:02;7.20;68.90
56498;DHT22;51790;45.558;12.076;2023-03-16T22:10:11;7.10;69.00
56498;DHT22;51790;45.558;12.076;2023-03-16T22:16:17;6.90;69.50
56498;DHT22;51790;45.558;12.076;2023-03-16T22:22:18;6.80;69.10
56498;DHT22;51790;45.558;12.076;2023-03-16T22:28:20;6.80;69.40
56498;DHT22;51790;45.558;12.076;2023-03-16T22:34:23;6.70;69.70
56498;DHT22;51790;45.558;12.076;2023-03-16T22:40:27;6.70;69.60
56498;DHT22;51790;45.558;12.076;2023-03-16T22:46:29;6.70;68.00
56498;DHT22;51790;45.558;12.076;2023-03-16T22:52:31;6.80;66.40
56498;DHT22;51790;45.558;12.076;2023-03-16T22:58:34;6.80;66.00
56498;DHT22;51790;45.558;12.076;2023-03-16T23:04:36;6.70;68.30
56498;DHT22;51790;45.558;12.076;2023-03-16T23:10:37;6.60;65.10
56498;DHT22;51790;45.558;12.076;2023-03-16T23:16:39;6.60;66.70
56498;DHT22;51790;45.558;12.076;2023-03-16T23:22:41;6.60;66.90
56498;DHT22;51790;45.558;12.076;2023-03-16T23:28:43;6.60;67.30
56498;DHT22;51790;45.558;12.076;2023-03-16T23:34:44;6.50;67.80
56498;DHT22;51790;45.558;12.076;2023-03-16T23:40:45;6.40;67.10
56498;DHT22;51790;45.558;12.076;2023-03-16T23:46:47;6.30;66.80
56498;DHT22;51790;45.558;12.076;2023-03-16T23:52:48;6.10;67.80
56498;DHT22;51790;45.558;12.076;2023-03-16T23:58:49;6.20;68.30
